Latest Weather Observations for Cape Sorell

IDT60801

Issued at 8:21 am EDT Sunday 20 January 2019 (issued every 10 minutes, with the page automatically refreshed every 10 minutes)

About weather observations | Map of weather stations | Latest weather observations for TAS | Other Formats
Station Details ID: 097000 Name: CAPE SORELL Lat: -42.20 Lon: 145.17 Height: 19.3 m
Data from the previous 72 hours. | See also: Recent months at Cape Sorell
Date/Time
EDT
Temp
°C
App
Temp
°C
Dew
Point
°C
Rel
Hum
%
Delta-T
°C
Wind Press
QNH
hPa
Press
MSL
hPa
Rain since
9am
mm
Dir  Spd
km/h
Gust
km/h
Spd
kts
Gust
kts
20/08:00am 16.2 13.1 12.2 77 2.2 W 20 26 11 14 1019.2 1019.1 0.4
20/07:30am 16.3 14.4 11.9 75 2.4 WNW 13 17 7 9 1019.2 1019.1 0.4
20/07:00am 16.0 14.0 11.6 75 2.4 W 13 17 7 9 1019.0 1018.9 0.4
20/06:30am 15.8 13.4 11.4 75 2.4 W 15 20 8 11 1018.8 1018.7 0.4
20/06:00am 15.8 12.1 11.6 76 2.3 WSW 22 26 12 14 1018.6 1018.5 0.4
20/05:30am 16.0 12.8 12.0 77 2.2 W 20 26 11 14 1018.6 1018.5 0.4
20/05:00am 15.7 11.4 12.1 79 2.0 WSW 26 32 14 17 1018.3 1018.2 0.4
20/04:30am 16.2 12.4 12.4 78 2.1 WNW 24 32 13 17 1018.1 1018.0 0.4
20/04:00am 16.2 13.3 12.4 78 2.1 NW 19 24 10 13 1018.2 1018.1 0.4
20/03:30am 15.7 13.1 12.1 79 2.0 NW 17 24 9 13 1018.2 1018.1 0.4
20/03:00am 15.9 12.5 12.6 81 1.8 WNW 22 28 12 15 1018.4 1018.3 0.4
20/02:30am 15.9 13.2 12.8 82 1.7 NW 19 24 10 13 1018.8 1018.7 0.4
20/02:00am 15.6 12.6 12.7 83 1.6 WNW 20 26 11 14 1018.9 1018.8 0.4
20/01:30am 15.6 12.3 12.9 84 1.5 W 22 30 12 16 1019.0 1018.9 0.4
20/01:00am 15.3 11.6 12.8 85 1.4 W 24 35 13 19 1019.2 1019.1 0.4
20/12:30am 15.6 11.7 13.4 87 1.2 WNW 26 33 14 18 1019.4 1019.3 0.4
20/12:00am 15.5 12.3 13.2 86 1.3 WNW 22 30 12 16 1019.4 1019.3 0.4
 
Date/Time
EDT
Temp
°C
App
Temp
°C
Dew
Point
°C
Rel
Hum
%
Delta-T
°C
Wind Press
QNH
hPa
Press
MSL
hPa
Rain since
9am
mm
Dir  Spd
km/h
Gust
km/h
Spd
kts
Gust
kts
19/11:30pm 15.9 12.7 13.2 84 1.5 WNW 22 30 12 16 1019.5 1019.4 0.2
19/11:00pm 15.9 12.3 13.0 83 1.6 NW 24 32 13 17 1019.3 1019.2 0.2
19/10:30pm 15.8 11.6 12.4 80 1.9 NW 26 35 14 19 1019.4 1019.3 0.2
19/10:00pm 15.8 11.4 11.8 77 2.2 NW 26 35 14 19 1019.4 1019.3 0.2
19/09:30pm 15.8 12.1 11.4 75 2.4 NW 22 35 12 19 1019.2 1019.1 0.2
19/09:00pm 15.7 11.1 11.1 74 2.5 WNW 26 35 14 19 1018.9 1018.8 0.2
19/08:30pm 16.2 12.4 11.2 72 2.7 NW 22 32 12 17 1018.8 1018.7 0.2
19/08:00pm 16.3 11.3 11.0 71 2.8 WNW 28 35 15 19 1018.6 1018.5 0.2
19/07:30pm 16.4 12.1 10.9 70 2.9 WNW 24 35 13 19 1018.5 1018.4 0.2
19/07:00pm 16.5 11.8 10.8 69 3.0 WNW 26 32 14 17 1018.3 1018.2 0.2
19/06:30pm 16.5 12.1 10.4 67 3.2 WNW 24 32 13 17 1018.2 1018.1 0.2
19/06:00pm 16.9 12.5 10.3 65 3.5 NW 24 32 13 17 1018.3 1018.2 0.2
19/05:30pm 17.4 13.0 10.3 63 3.8 NW 24 32 13 17 1018.5 1018.4 0.2
19/05:00pm 17.2 13.2 10.3 64 3.7 NW 22 30 12 16 1018.6 1018.5 0.2
19/04:30pm 17.4 12.8 9.8 61 4.0 NW 24 33 13 18 1018.8 1018.7 0.2
19/04:00pm 18.6 13.8 10.2 58 4.5 WNW 26 33 14 18 1019.0 1018.9 0.2
19/03:30pm 19.0 13.6 9.5 54 5.0 WNW 28 35 15 19 1019.0 1018.9 0.2
19/03:00pm 18.2 12.8 9.5 57 4.6 WNW 28 35 15 19 1019.0 1018.9 0.2
19/02:30pm 19.3 14.9 10.3 56 4.8 WNW 24 33 13 18 1019.2 1019.1 0.2
19/02:00pm 18.3 13.3 9.6 57 4.6 WNW 26 35 14 19 1019.0 1018.9 0.2
19/01:30pm 19.4 15.1 10.9 58 4.6 WNW 24 33 13 18 1018.9 1018.8 0.2
19/01:00pm 20.0 15.8 11.0 56 4.9 WNW 24 35 13 19 1018.7 1018.6 0.2
19/12:30pm 18.7 13.9 10.3 58 4.5 WNW 26 32 14 17 1018.6 1018.5 0.2
19/12:00pm 18.7 14.7 10.3 58 4.5 WNW 22 30 12 16 1018.6 1018.5 0.2
19/11:30am 19.1 15.9 11.9 63 4.0 WNW 20 28 11 15 1018.4 1018.3 0.2
19/11:00am 17.2 13.7 11.0 67 3.3 W 20 32 11 17 1018.1 1018.0 0.0
19/10:30am 16.6 12.5 10.2 66 3.4 W 22 32 12 17 1017.9 1017.8 0.0
19/10:00am 17.3 13.3 10.4 64 3.7 WSW 22 32 12 17 1017.6 1017.5 0.0
19/09:30am 15.7 11.1 9.8 68 3.1 WSW 24 32 13 17 1017.3 1017.2 0.0
19/09:00am 15.7 10.1 10.2 70 2.9 WSW 30 39 16 21 1017.1 1017.0 3.0
19/08:30am 15.5 10.8 10.5 72 2.6 WSW 26 32 14 17 1016.3 1016.2 3.0
19/08:00am 15.3 11.7 9.7 69 2.9 W 19 24 10 13 1015.8 1015.7 3.0
19/07:30am 15.3 12.5 9.9 70 2.8 W 15 20 8 11 1015.5 1015.5 3.0
19/07:00am 14.8 11.1 9.4 70 2.8 WSW 19 28 10 15 1015.3 1015.3 3.0
19/06:30am 14.5 9.8 9.3 71 2.7 WSW 24 30 13 16 1014.9 1014.9 3.0
19/06:00am 14.6 8.2 9.4 71 2.7 WSW 33 43 18 23 1014.4 1014.4 3.0
19/05:30am 14.7 10.9 9.7 72 2.6 WSW 20 26 11 14 1013.9 1013.9 3.0
19/05:00am 14.1 9.0 9.3 73 2.5 WSW 26 30 14 16 1013.2 1013.2 3.0
19/04:30am 14.2 10.0 9.8 75 2.3 SW 22 30 12 16 1013.0 1013.0 3.0
19/04:00am 14.6 9.3 9.8 73 2.5 WSW 28 37 15 20 1012.9 1012.9 3.0
19/03:30am 14.4 8.6 9.6 73 2.5 WSW 30 35 16 19 1012.9 1012.9 3.0
19/03:00am 14.5 8.8 9.7 73 2.5 WSW 30 37 16 20 1012.9 1012.9 3.0
19/02:30am 14.4 8.7 9.8 74 2.4 WSW 30 35 16 19 1012.8 1012.8 3.0
19/02:00am 14.5 8.5 10.1 75 2.3 WSW 32 37 17 20 1012.7 1012.7 3.0
19/01:30am 14.5 8.9 10.1 75 2.3 WSW 30 37 16 20 1012.4 1012.4 3.0
19/01:00am 14.4 8.2 10.2 76 2.2 SW 33 41 18 22 1012.1 1012.1 3.0
19/12:30am 14.3 6.4 10.7 79 1.9 SW 43 48 23 26 1011.6 1011.6 3.0
19/12:00am 15.0 9.0 10.8 76 2.2 WSW 33 43 18 23 1011.3 1011.3 3.0
 
Date/Time
EDT
Temp
°C
App
Temp
°C
Dew
Point
°C
Rel
Hum
%
Delta-T
°C
Wind Press
QNH
hPa
Press
MSL
hPa
Rain since
9am
mm
Dir  Spd
km/h
Gust
km/h
Spd
kts
Gust
kts
18/11:30pm 14.5 6.6 10.7 78 2.0 SW 43 52 23 28 1010.9 1010.9 3.0
18/11:00pm 14.0 6.8 10.6 80 1.8 WSW 39 52 21 28 1010.7 1010.7 3.0
18/10:49pm 14.5 9.2 11.1 80 1.8 WSW 30 48 16 26 1010.9 1010.9 3.0
18/10:30pm 14.2 5.5 10.0 76 2.2 SW 46 56 25 30 1010.7 1010.7 2.8
18/10:00pm 15.4 7.7 10.2 71 2.7 WSW 41 50 22 27 1010.2 1010.2 2.8
18/09:30pm 15.3 7.1 10.5 73 2.5 WSW 44 52 24 28 1009.5 1009.5 2.8
18/09:00pm 15.8 7.1 11.2 74 2.5 WSW 48 59 26 32 1008.8 1008.8 2.8
18/08:30pm 15.7 7.5 11.7 77 2.2 WSW 46 61 25 33 1008.2 1008.2 2.8
18/08:00pm 15.6 8.1 12.0 79 2.0 WSW 43 56 23 30 1007.5 1007.5 2.8
18/07:30pm 14.9 7.1 11.7 81 1.7 W 44 65 24 35 1006.7 1006.7 2.8
18/07:29pm 14.9 7.3 11.7 81 1.7 W 43 65 23 35 1006.5 1006.5 2.8
18/07:12pm 15.0 7.2 11.2 78 2.0 W 43 63 23 34 1006.5 1006.5 2.8
18/07:00pm 16.2 8.7 12.0 76 2.3 WNW 43 67 23 36 1006.4 1006.4 2.0
18/06:53pm 16.6 9.1 12.0 74 2.5 NW 43 67 23 36 1006.6 1006.6 1.8
18/06:52pm 16.8 9.3 12.1 74 2.6 NW 43 67 23 36 1006.5 1006.5 1.6
18/06:49pm 17.3 10.6 12.2 72 2.8 NNW 39 59 21 32 1006.4 1006.4 0.0
18/06:30pm 18.3 12.8 12.5 69 3.2 NNW 33 44 18 24 1006.0 1006.0 0.0
18/06:00pm 19.4 14.5 12.4 64 3.9 NW 30 39 16 21 1006.1 1006.1 0.0
18/05:30pm 20.3 15.8 12.5 61 4.4 NW 28 43 15 23 1006.2 1006.2 0.0
18/05:00pm 20.6 17.4 13.1 62 4.3 NW 22 35 12 19 1006.1 1006.1 0.0
18/04:30pm 20.8 16.7 12.8 60 4.5 NW 26 35 14 19 1005.7 1005.7 0.0
18/04:00pm 21.0 17.4 13.2 61 4.5 NW 24 33 13 18 1005.6 1005.6 0.0
18/03:30pm 21.4 18.3 13.3 60 4.6 WNW 22 28 12 15 1005.6 1005.6 0.0
18/03:00pm 21.6 18.9 13.5 60 4.7 WNW 20 24 11 13 1005.7 1005.7 0.0
18/02:30pm 21.2 19.3 12.9 59 4.7 WNW 15 24 8 13 1005.7 1005.7 0.0
18/02:00pm 20.5 18.8 13.5 64 4.0 W 15 19 8 10 1006.0 1006.0 0.0
18/01:30pm 21.9 20.5 13.5 59 4.8 W 13 17 7 9 1005.9 1005.9 0.0
18/01:00pm 21.6 20.7 13.8 61 4.5 WSW 11 15 6 8 1006.1 1006.1 0.0
18/12:30pm 21.7 20.8 13.6 60 4.7 WSW 11 15 6 8 1006.5 1006.5 0.0
18/12:00pm 21.4 21.0 14.1 63 4.3 W 9 13 5 7 1006.9 1006.9 0.0
18/11:30am 20.5 19.4 14.2 67 3.7 W 13 17 7 9 1007.7 1007.7 0.0
18/11:00am 19.9 17.6 14.0 69 3.4 WSW 19 22 10 12 1007.6 1007.6 0.0
18/10:30am 20.3 19.7 13.5 65 3.9 WSW 9 13 5 7 1007.2 1007.2 0.0
18/10:00am 19.6 19.2 13.1 66 3.7 W 7 9 4 5 1007.3 1007.3 0.0
18/09:30am 19.3 19.4 13.9 71 3.1 W 6 7 3 4 1007.2 1007.2 0.0
18/09:00am 18.0 17.7 13.3 74 2.7 W 7 11 4 6 1007.5 1007.5 0.2
18/08:30am 17.8 18.5 13.5 76 2.4 ENE 2 4 1 2 1007.6 1007.6 0.2
18/08:00am 18.4 19.8 14.3 77 2.4 CALM 0 2 0 1 1007.2 1007.2 0.2
18/07:30am 17.4 18.6 13.9 80 2.0 CALM 0 2 0 1 1006.9 1006.9 0.2
18/07:00am 16.7 16.4 13.2 80 2.0 SSW 7 9 4 5 1007.0 1007.0 0.2
18/06:30am 16.3 15.1 12.8 80 1.9 SSW 11 15 6 8 1006.8 1006.8 0.2
18/06:00am 16.3 14.3 12.8 80 1.9 SSW 15 17 8 9 1006.5 1006.5 0.2
18/05:30am 16.4 14.2 13.3 82 1.7 SW 17 20 9 11 1006.1 1006.1 0.2
18/05:00am 16.5 16.0 13.8 84 1.5 S 9 13 5 7 1005.6 1005.6 0.2
18/04:30am 17.0 15.1 14.3 84 1.5 SSW 17 20 9 11 1005.5 1005.5 0.2
18/04:00am 17.2 15.8 14.5 84 1.6 SW 15 17 8 9 1005.3 1005.3 0.2
18/03:30am 17.3 17.6 14.4 83 1.7 WSW 6 9 3 5 1005.4 1005.4 0.2
18/03:00am 17.2 17.2 14.3 83 1.7 W 7 11 4 6 1005.4 1005.4 0.2
18/02:30am 17.1 17.2 14.4 84 1.5 WSW 7 15 4 8 1005.9 1005.9 0.2
18/02:00am 17.4 17.7 14.9 85 1.5 SW 7 9 4 5 1005.8 1005.8 0.2
18/01:30am 17.4 17.7 14.9 85 1.4 SW 7 7 4 4 1005.9 1005.9 0.2
18/01:00am 17.3 17.7 14.8 85 1.4 S 6 7 3 4 1005.9 1005.9 0.2
18/12:30am 17.2 17.0 14.7 85 1.4 S 9 11 5 6 1005.8 1005.8 0.2
18/12:00am 17.2 16.9 14.5 84 1.6 S 9 11 5 6 1006.1 1006.1 0.2
 
Date/Time
EDT
Temp
°C
App
Temp
°C
Dew
Point
°C
Rel
Hum
%
Delta-T
°C
Wind Press
QNH
hPa
Press
MSL
hPa
Rain since
9am
mm
Dir  Spd
km/h
Gust
km/h
Spd
kts
Gust
kts
17/11:30pm 17.3 16.3 14.6 84 1.6 S 13 17 7 9 1006.2 1006.2 0.2
17/11:00pm 17.2 15.7 14.3 83 1.7 S 15 19 8 10 1006.3 1006.3 0.2
17/10:30pm 17.4 15.9 14.3 82 1.8 S 15 19 8 10 1006.4 1006.4 0.2
17/10:00pm 17.6 16.0 13.9 79 2.1 S 15 20 8 11 1006.4 1006.4 0.2
17/09:30pm 17.9 15.8 13.6 76 2.4 S 17 19 9 10 1006.0 1006.0 0.2
17/09:00pm 18.1 16.3 13.4 74 2.7 S 15 17 8 9 1006.1 1006.1 0.2
17/08:30pm 18.5 17.2 13.6 73 2.8 SSW 13 15 7 8 1006.2 1006.2 0.2
17/08:00pm 19.3 18.5 14.1 72 3.0 SSW 11 13 6 7 1006.1 1006.1 0.2
17/07:30pm 19.6 19.2 14.2 71 3.1 SSW 9 11 5 6 1005.9 1005.9 0.2
17/07:00pm 20.5 20.2 14.4 68 3.6 S 9 11 5 6 1005.8 1005.8 0.2
17/06:30pm 21.3 21.6 14.9 67 3.8 S 7 9 4 5 1005.8 1005.8 0.2
17/06:00pm 21.6 21.9 15.0 66 3.9 SSW 7 9 4 5 1005.8 1005.8 0.2
17/05:30pm 21.3 22.6 15.2 68 3.6 NNE 2 7 1 4 1006.1 1006.1 0.2
17/05:00pm 21.3 21.3 13.7 62 4.4 SW 6 9 3 5 1006.8 1006.8 0.2
17/04:30pm 22.3 22.8 15.6 66 4.0 WSW 7 9 4 5 1007.2 1007.2 0.2
17/04:00pm 22.1 21.9 15.7 67 3.8 W 11 17 6 9 1007.5 1007.5 0.2
17/03:30pm 22.1 22.1 15.2 65 4.1 W 9 13 5 7 1007.6 1007.6 0.2
17/03:00pm 22.1 22.3 15.7 67 3.8 SW 9 11 5 6 1007.2 1007.2 0.2
17/02:30pm 22.0 21.2 16.1 69 3.6 SW 15 17 8 9 1007.0 1007.0 0.2
17/02:00pm 22.6 21.5 16.4 68 3.8 SSW 17 19 9 10 1006.8 1006.8 0.2
17/01:30pm 22.2 21.4 16.0 68 3.7 SSW 15 17 8 9 1006.6 1006.6 0.2
17/01:00pm 22.3 21.3 16.6 70 3.5 SSW 17 17 9 9 1006.4 1006.4 0.2
17/12:30pm 22.4 23.3 17.5 74 3.0 SW 9 11 5 6 1006.1 1006.1 0.2
17/12:00pm 23.7 26.3 19.2 76 2.9 NNW 4 6 2 3 1005.8 1005.8 0.2
17/11:30am 21.4 22.4 17.8 80 2.2 ENE 9 15 5 8 1005.8 1005.8 0.0
17/11:00am 19.4 20.0 16.8 85 1.6 E 9 15 5 8 1006.3 1006.3 0.0
17/10:30am 18.4 18.0 16.2 87 1.3 ESE 13 17 7 9 1006.8 1006.8 0.0
17/10:00am 16.6 16.0 14.6 88 1.2 ESE 11 17 6 9 1007.3 1007.3 0.0
17/09:30am 16.1 14.9 14.1 88 1.1 ESE 13 17 7 9 1007.9 1007.9 0.0
17/09:00am 16.0 14.5 14.2 89 1.0 ESE 15 20 8 11 1008.3 1008.3 1.2
17/08:30am 15.4 13.6 13.4 88 1.1 E 15 22 8 12 1008.6 1008.6 1.2

Other Formats:

Comma delimited format used in spreadsheet applications
http://www.bom.gov.au/fwo/IDT60801/IDT60801.94974.axf

JavaScript Object Notation format (JSON) in row-major order
http://www.bom.gov.au/fwo/IDT60801/IDT60801.94974.json